sensor_id;sensor_type;location;lat;lon;timestamp;P1;durP1;ratioP1;P2;durP2;ratioP2
37237;SDS011;23129;49.662;8.448;2024-03-06T00:01:58;5.68;;;4.55;;
37237;SDS011;23129;49.662;8.448;2024-03-06T00:04:27;7.10;;;4.97;;
37237;SDS011;23129;49.662;8.448;2024-03-06T00:06:56;7.38;;;4.65;;
37237;SDS011;23129;49.662;8.448;2024-03-06T00:09:25;8.85;;;6.43;;
37237;SDS011;23129;49.662;8.448;2024-03-06T00:11:54;10.48;;;6.70;;
37237;SDS011;23129;49.662;8.448;2024-03-06T00:14:23;10.32;;;6.53;;
37237;SDS011;23129;49.662;8.448;2024-03-06T00:16:52;9.68;;;5.65;;
37237;SDS011;23129;49.662;8.448;2024-03-06T00:19:23;7.70;;;5.18;;
37237;SDS011;23129;49.662;8.448;2024-03-06T00:21:52;11.10;;;5.63;;
37237;SDS011;23129;49.662;8.448;2024-03-06T00:24:20;8.85;;;6.43;;
37237;SDS011;23129;49.662;8.448;2024-03-06T00:26:49;7.25;;;5.60;;
37237;SDS011;23129;49.662;8.448;2024-03-06T00:29:18;13.40;;;6.38;;
37237;SDS011;23129;49.662;8.448;2024-03-06T00:31:46;12.40;;;5.85;;
37237;SDS011;23129;49.662;8.448;2024-03-06T00:34:15;9.07;;;5.50;;
37237;SDS011;23129;49.662;8.448;2024-03-06T00:36:45;8.60;;;5.75;;
37237;SDS011;23129;49.662;8.448;2024-03-06T00:39:13;7.80;;;5.82;;
37237;SDS011;23129;49.662;8.448;2024-03-06T00:41:42;9.68;;;5.50;;
37237;SDS011;23129;49.662;8.448;2024-03-06T00:44:11;9.00;;;4.88;;
37237;SDS011;23129;49.662;8.448;2024-03-06T00:46:39;7.22;;;4.03;;
37237;SDS011;23129;49.662;8.448;2024-03-06T00:49:08;8.05;;;4.93;;
37237;SDS011;23129;49.662;8.448;2024-03-06T00:51:37;7.90;;;5.15;;
37237;SDS011;23129;49.662;8.448;2024-03-06T00:54:15;7.70;;;4.47;;
37237;SDS011;23129;49.662;8.448;2024-03-06T00:56:44;10.52;;;5.55;;
37237;SDS011;23129;49.662;8.448;2024-03-06T00:59:13;5.53;;;4.30;;
37237;SDS011;23129;49.662;8.448;2024-03-06T01:01:43;9.27;;;4.57;;
37237;SDS011;23129;49.662;8.448;2024-03-06T01:04:12;9.45;;;4.80;;
37237;SDS011;23129;49.662;8.448;2024-03-06T01:06:40;7.32;;;4.35;;
37237;SDS011;23129;49.662;8.448;2024-03-06T01:09:09;7.72;;;4.47;;
37237;SDS011;23129;49.662;8.448;2024-03-06T01:11:39;8.00;;;4.65;;
37237;SDS011;23129;49.662;8.448;2024-03-06T01:14:08;5.13;;;3.65;;
37237;SDS011;23129;49.662;8.448;2024-03-06T01:16:36;7.28;;;4.68;;
37237;SDS011;23129;49.662;8.448;2024-03-06T01:19:05;7.93;;;4.68;;
37237;SDS011;23129;49.662;8.448;2024-03-06T01:21:34;8.27;;;4.70;;
37237;SDS011;23129;49.662;8.448;2024-03-06T01:24:02;7.28;;;4.88;;
37237;SDS011;23129;49.662;8.448;2024-03-06T01:26:31;6.70;;;3.95;;
37237;SDS011;23129;49.662;8.448;2024-03-06T01:29:02;7.43;;;4.93;;
37237;SDS011;23129;49.662;8.448;2024-03-06T01:31:30;8.40;;;4.75;;
37237;SDS011;23129;49.662;8.448;2024-03-06T01:33:59;5.82;;;4.60;;
37237;SDS011;23129;49.662;8.448;2024-03-06T01:36:28;14.38;;;4.68;;
37237;SDS011;23129;49.662;8.448;2024-03-06T01:38:57;7.80;;;5.07;;
37237;SDS011;23129;49.662;8.448;2024-03-06T01:41:25;13.65;;;4.38;;
37237;SDS011;23129;49.662;8.448;2024-03-06T01:43:54;5.55;;;4.03;;
37237;SDS011;23129;49.662;8.448;2024-03-06T01:46:24;6.55;;;4.93;;
37237;SDS011;23129;49.662;8.448;2024-03-06T01:48:53;8.73;;;4.22;;
37237;SDS011;23129;49.662;8.448;2024-03-06T01:51:21;3.67;;;3.20;;
37237;SDS011;23129;49.662;8.448;2024-03-06T01:53:51;13.93;;;4.32;;
37237;SDS011;23129;49.662;8.448;2024-03-06T01:56:20;5.82;;;3.70;;
37237;SDS011;23129;49.662;8.448;2024-03-06T01:58:50;7.10;;;4.25;;
37237;SDS011;23129;49.662;8.448;2024-03-06T02:01:22;8.45;;;4.97;;
37237;SDS011;23129;49.662;8.448;2024-03-06T02:03:52;10.52;;;4.68;;
37237;SDS011;23129;49.662;8.448;2024-03-06T02:06:21;8.38;;;4.80;;
37237;SDS011;23129;49.662;8.448;2024-03-06T02:08:50;7.35;;;5.00;;
37237;SDS011;23129;49.662;8.448;2024-03-06T02:11:19;6.38;;;4.20;;
37237;SDS011;23129;49.662;8.448;2024-03-06T02:13:49;6.53;;;4.20;;
37237;SDS011;23129;49.662;8.448;2024-03-06T02:16:18;6.28;;;4.72;;
37237;SDS011;23129;49.662;8.448;2024-03-06T02:18:54;5.00;;;4.43;;
37237;SDS011;23129;49.662;8.448;2024-03-06T02:21:25;7.85;;;4.60;;
37237;SDS011;23129;49.662;8.448;2024-03-06T02:23:54;7.25;;;4.72;;
37237;SDS011;23129;49.662;8.448;2024-03-06T02:26:22;13.02;;;5.20;;
37237;SDS011;23129;49.662;8.448;2024-03-06T02:28:51;8.93;;;5.40;;
37237;SDS011;23129;49.662;8.448;2024-03-06T02:31:21;11.45;;;4.95;;
37237;SDS011;23129;49.662;8.448;2024-03-06T02:33:50;9.48;;;5.70;;
37237;SDS011;23129;49.662;8.448;2024-03-06T02:36:18;4.65;;;4.20;;
37237;SDS011;23129;49.662;8.448;2024-03-06T02:38:49;5.40;;;4.22;;
37237;SDS011;23129;49.662;8.448;2024-03-06T02:41:18;10.05;;;4.78;;
37237;SDS011;23129;49.662;8.448;2024-03-06T02:43:47;6.63;;;4.03;;
37237;SDS011;23129;49.662;8.448;2024-03-06T02:46:16;5.25;;;4.28;;
37237;SDS011;23129;49.662;8.448;2024-03-06T02:48:45;5.95;;;4.10;;
37237;SDS011;23129;49.662;8.448;2024-03-06T02:51:17;4.95;;;4.43;;
37237;SDS011;23129;49.662;8.448;2024-03-06T02:53:46;6.20;;;5.03;;
37237;SDS011;23129;49.662;8.448;2024-03-06T02:56:17;8.43;;;4.97;;
37237;SDS011;23129;49.662;8.448;2024-03-06T02:58:46;10.35;;;4.43;;
37237;SDS011;23129;49.662;8.448;2024-03-06T03:01:15;5.07;;;4.25;;
37237;SDS011;23129;49.662;8.448;2024-03-06T03:03:44;6.32;;;4.22;;
37237;SDS011;23129;49.662;8.448;2024-03-06T03:06:13;5.88;;;3.78;;
37237;SDS011;23129;49.662;8.448;2024-03-06T03:08:42;6.85;;;4.15;;
37237;SDS011;23129;49.662;8.448;2024-03-06T03:11:11;6.20;;;4.43;;
37237;SDS011;23129;49.662;8.448;2024-03-06T03:13:42;5.55;;;4.28;;
37237;SDS011;23129;49.662;8.448;2024-03-06T03:16:15;10.13;;;4.18;;
37237;SDS011;23129;49.662;8.448;2024-03-06T03:18:45;7.90;;;4.88;;
37237;SDS011;23129;49.662;8.448;2024-03-06T03:21:14;6.13;;;4.55;;
37237;SDS011;23129;49.662;8.448;2024-03-06T03:23:43;6.90;;;5.18;;
37237;SDS011;23129;49.662;8.448;2024-03-06T03:26:12;10.05;;;5.10;;
37237;SDS011;23129;49.662;8.448;2024-03-06T03:28:42;6.75;;;4.38;;
37237;SDS011;23129;49.662;8.448;2024-03-06T03:31:11;6.00;;;4.05;;
37237;SDS011;23129;49.662;8.448;2024-03-06T03:33:40;7.13;;;4.13;;
37237;SDS011;23129;49.662;8.448;2024-03-06T03:36:09;6.85;;;4.20;;
37237;SDS011;23129;49.662;8.448;2024-03-06T03:38:38;6.35;;;4.50;;
37237;SDS011;23129;49.662;8.448;2024-03-06T03:41:08;7.68;;;4.68;;
37237;SDS011;23129;49.662;8.448;2024-03-06T03:43:39;4.47;;;3.88;;
37237;SDS011;23129;49.662;8.448;2024-03-06T03:46:09;10.73;;;5.30;;
37237;SDS011;23129;49.662;8.448;2024-03-06T03:48:39;8.98;;;4.93;;
37237;SDS011;23129;49.662;8.448;2024-03-06T03:51:08;9.98;;;4.45;;
37237;SDS011;23129;49.662;8.448;2024-03-06T03:53:37;7.07;;;4.55;;
37237;SDS011;23129;49.662;8.448;2024-03-06T03:56:06;8.65;;;5.95;;
37237;SDS011;23129;49.662;8.448;2024-03-06T03:58:35;11.23;;;5.38;;
37237;SDS011;23129;49.662;8.448;2024-03-06T04:01:03;14.18;;;5.00;;
37237;SDS011;23129;49.662;8.448;2024-03-06T04:03:33;9.60;;;5.00;;
37237;SDS011;23129;49.662;8.448;2024-03-06T04:06:03;6.25;;;4.18;;
37237;SDS011;23129;49.662;8.448;2024-03-06T04:08:32;6.57;;;4.70;;
37237;SDS011;23129;49.662;8.448;2024-03-06T04:11:01;6.55;;;4.95;;
37237;SDS011;23129;49.662;8.448;2024-03-06T04:13:30;6.25;;;4.50;;
37237;SDS011;23129;49.662;8.448;2024-03-06T04:16:04;6.32;;;4.30;;
37237;SDS011;23129;49.662;8.448;2024-03-06T04:18:34;4.43;;;3.90;;
37237;SDS011;23129;49.662;8.448;2024-03-06T04:21:03;6.25;;;4.32;;
37237;SDS011;23129;49.662;8.448;2024-03-06T04:23:33;7.85;;;4.97;;
37237;SDS011;23129;49.662;8.448;2024-03-06T04:26:02;8.68;;;5.10;;
37237;SDS011;23129;49.662;8.448;2024-03-06T04:28:32;4.13;;;3.72;;
37237;SDS011;23129;49.662;8.448;2024-03-06T04:31:01;6.95;;;4.53;;
37237;SDS011;23129;49.662;8.448;2024-03-06T04:33:30;8.73;;;4.90;;
37237;SDS011;23129;49.662;8.448;2024-03-06T04:36:01;9.30;;;4.88;;
37237;SDS011;23129;49.662;8.448;2024-03-06T04:38:32;8.15;;;5.28;;
37237;SDS011;23129;49.662;8.448;2024-03-06T04:41:00;8.65;;;4.75;;
37237;SDS011;23129;49.662;8.448;2024-03-06T04:43:29;4.55;;;3.45;;
37237;SDS011;23129;49.662;8.448;2024-03-06T04:45:58;5.38;;;4.03;;
37237;SDS011;23129;49.662;8.448;2024-03-06T04:48:26;7.45;;;5.00;;
37237;SDS011;23129;49.662;8.448;2024-03-06T04:50:55;9.48;;;5.60;;
37237;SDS011;23129;49.662;8.448;2024-03-06T04:53:25;15.95;;;5.75;;
37237;SDS011;23129;49.662;8.448;2024-03-06T04:55:54;11.07;;;5.90;;
37237;SDS011;23129;49.662;8.448;2024-03-06T04:58:23;23.60;;;7.93;;
37237;SDS011;23129;49.662;8.448;2024-03-06T05:00:51;14.63;;;7.38;;
37237;SDS011;23129;49.662;8.448;2024-03-06T05:03:20;14.73;;;6.53;;
37237;SDS011;23129;49.662;8.448;2024-03-06T05:06:06;9.02;;;5.00;;
37237;SDS011;23129;49.662;8.448;2024-03-06T05:08:54;13.20;;;6.00;;
37237;SDS011;23129;49.662;8.448;2024-03-06T05:11:40;7.35;;;4.93;;
37237;SDS011;23129;49.662;8.448;2024-03-06T05:14:26;8.18;;;4.68;;
37237;SDS011;23129;49.662;8.448;2024-03-06T05:17:13;5.72;;;4.40;;
37237;SDS011;23129;49.662;8.448;2024-03-06T05:19:59;11.85;;;5.03;;
37237;SDS011;23129;49.662;8.448;2024-03-06T05:22:46;8.10;;;3.95;;
37237;SDS011;23129;49.662;8.448;2024-03-06T05:25:34;6.28;;;4.25;;
37237;SDS011;23129;49.662;8.448;2024-03-06T05:28:20;6.55;;;4.45;;
37237;SDS011;23129;49.662;8.448;2024-03-06T05:31:15;7.63;;;4.65;;
37237;SDS011;23129;49.662;8.448;2024-03-06T05:34:02;9.13;;;5.45;;
37237;SDS011;23129;49.662;8.448;2024-03-06T05:36:49;7.82;;;4.65;;
37237;SDS011;23129;49.662;8.448;2024-03-06T05:39:35;5.43;;;3.85;;
37237;SDS011;23129;49.662;8.448;2024-03-06T05:42:23;5.43;;;4.03;;
37237;SDS011;23129;49.662;8.448;2024-03-06T05:45:09;5.18;;;4.20;;
37237;SDS011;23129;49.662;8.448;2024-03-06T05:47:56;3.10;;;2.63;;
37237;SDS011;23129;49.662;8.448;2024-03-06T05:50:42;5.53;;;3.80;;
37237;SDS011;23129;49.662;8.448;2024-03-06T05:53:28;4.53;;;3.30;;
37237;SDS011;23129;49.662;8.448;2024-03-06T05:56:16;8.15;;;5.32;;
37237;SDS011;23129;49.662;8.448;2024-03-06T05:59:04;7.85;;;5.20;;
37237;SDS011;23129;49.662;8.448;2024-03-06T06:01:34;8.90;;;5.70;;
37237;SDS011;23129;49.662;8.448;2024-03-06T06:04:03;6.10;;;3.38;;
37237;SDS011;23129;49.662;8.448;2024-03-06T06:06:33;4.47;;;3.08;;
37237;SDS011;23129;49.662;8.448;2024-03-06T06:09:02;4.68;;;2.85;;
37237;SDS011;23129;49.662;8.448;2024-03-06T06:11:32;7.32;;;3.20;;
37237;SDS011;23129;49.662;8.448;2024-03-06T06:14:01;5.93;;;3.75;;
37237;SDS011;23129;49.662;8.448;2024-03-06T06:16:35;9.32;;;4.47;;
37237;SDS011;23129;49.662;8.448;2024-03-06T06:19:05;9.18;;;5.40;;
37237;SDS011;23129;49.662;8.448;2024-03-06T06:21:33;11.05;;;4.53;;
37237;SDS011;23129;49.662;8.448;2024-03-06T06:24:03;7.78;;;4.60;;
37237;SDS011;23129;49.662;8.448;2024-03-06T06:26:33;6.60;;;4.55;;
37237;SDS011;23129;49.662;8.448;2024-03-06T06:29:02;6.35;;;4.82;;
37237;SDS011;23129;49.662;8.448;2024-03-06T06:31:31;10.35;;;5.30;;
37237;SDS011;23129;49.662;8.448;2024-03-06T06:34:01;6.10;;;3.97;;
37237;SDS011;23129;49.662;8.448;2024-03-06T06:36:30;7.30;;;4.78;;
37237;SDS011;23129;49.662;8.448;2024-03-06T06:38:58;12.90;;;4.57;;
37237;SDS011;23129;49.662;8.448;2024-03-06T06:41:31;5.10;;;4.03;;
37237;SDS011;23129;49.662;8.448;2024-03-06T06:44:00;8.88;;;4.72;;
37237;SDS011;23129;49.662;8.448;2024-03-06T06:46:29;9.32;;;4.93;;
37237;SDS011;23129;49.662;8.448;2024-03-06T06:48:58;6.30;;;4.35;;
37237;SDS011;23129;49.662;8.448;2024-03-06T06:51:28;5.95;;;4.65;;
37237;SDS011;23129;49.662;8.448;2024-03-06T06:53:56;15.07;;;7.18;;
37237;SDS011;23129;49.662;8.448;2024-03-06T06:56:26;18.98;;;8.00;;
37237;SDS011;23129;49.662;8.448;2024-03-06T06:58:55;17.05;;;7.88;;
37237;SDS011;23129;49.662;8.448;2024-03-06T07:01:24;7.50;;;4.85;;
37237;SDS011;23129;49.662;8.448;2024-03-06T07:03:54;6.40;;;4.32;;
37237;SDS011;23129;49.662;8.448;2024-03-06T07:06:22;7.32;;;5.63;;
37237;SDS011;23129;49.662;8.448;2024-03-06T07:08:53;12.07;;;6.35;;
37237;SDS011;23129;49.662;8.448;2024-03-06T07:11:21;7.43;;;4.65;;
37237;SDS011;23129;49.662;8.448;2024-03-06T07:13:50;5.90;;;4.15;;
37237;SDS011;23129;49.662;8.448;2024-03-06T07:16:19;4.25;;;3.78;;
37237;SDS011;23129;49.662;8.448;2024-03-06T07:18:48;7.55;;;4.10;;
37237;SDS011;23129;49.662;8.448;2024-03-06T07:21:16;4.88;;;2.90;;
37237;SDS011;23129;49.662;8.448;2024-03-06T07:23:45;5.78;;;3.58;;
37237;SDS011;23129;49.662;8.448;2024-03-06T07:26:16;6.93;;;3.58;;
37237;SDS011;23129;49.662;8.448;2024-03-06T07:28:44;10.05;;;3.75;;
37237;SDS011;23129;49.662;8.448;2024-03-06T07:31:13;7.75;;;4.05;;
37237;SDS011;23129;49.662;8.448;2024-03-06T07:33:41;7.35;;;4.00;;
37237;SDS011;23129;49.662;8.448;2024-03-06T07:36:12;3.90;;;3.45;;
37237;SDS011;23129;49.662;8.448;2024-03-06T07:38:42;5.25;;;2.95;;
37237;SDS011;23129;49.662;8.448;2024-03-06T07:41:11;2.53;;;2.25;;
37237;SDS011;23129;49.662;8.448;2024-03-06T07:43:41;2.45;;;2.22;;
37237;SDS011;23129;49.662;8.448;2024-03-06T07:46:10;5.22;;;3.08;;
37237;SDS011;23129;49.662;8.448;2024-03-06T07:48:41;6.03;;;3.13;;
37237;SDS011;23129;49.662;8.448;2024-03-06T07:51:11;5.88;;;2.78;;
37237;SDS011;23129;49.662;8.448;2024-03-06T07:53:40;4.18;;;3.22;;
37237;SDS011;23129;49.662;8.448;2024-03-06T07:56:09;7.47;;;2.45;;
37237;SDS011;23129;49.662;8.448;2024-03-06T07:58:40;3.75;;;2.45;;
37237;SDS011;23129;49.662;8.448;2024-03-06T08:01:09;2.72;;;2.15;;
37237;SDS011;23129;49.662;8.448;2024-03-06T08:03:38;2.65;;;2.45;;
37237;SDS011;23129;49.662;8.448;2024-03-06T08:06:07;3.67;;;2.50;;
37237;SDS011;23129;49.662;8.448;2024-03-06T08:08:36;4.78;;;3.50;;
37237;SDS011;23129;49.662;8.448;2024-03-06T08:11:10;4.85;;;3.05;;
37237;SDS011;23129;49.662;8.448;2024-03-06T08:13:41;2.80;;;2.28;;
37237;SDS011;23129;49.662;8.448;2024-03-06T08:16:11;3.90;;;2.60;;
37237;SDS011;23129;49.662;8.448;2024-03-06T08:18:39;3.72;;;2.40;;
37237;SDS011;23129;49.662;8.448;2024-03-06T08:21:08;2.67;;;1.65;;
37237;SDS011;23129;49.662;8.448;2024-03-06T08:23:37;2.38;;;1.92;;
37237;SDS011;23129;49.662;8.448;2024-03-06T08:26:05;5.40;;;2.17;;
37237;SDS011;23129;49.662;8.448;2024-03-06T08:28:34;3.00;;;1.88;;
37237;SDS011;23129;49.662;8.448;2024-03-06T08:31:05;1.90;;;1.67;;
37237;SDS011;23129;49.662;8.448;2024-03-06T08:33:34;1.50;;;1.40;;
37237;SDS011;23129;49.662;8.448;2024-03-06T08:36:04;1.92;;;1.50;;
37237;SDS011;23129;49.662;8.448;2024-03-06T08:38:33;3.03;;;1.63;;
37237;SDS011;23129;49.662;8.448;2024-03-06T08:41:02;4.60;;;1.75;;
37237;SDS011;23129;49.662;8.448;2024-03-06T08:43:32;1.77;;;1.20;;
37237;SDS011;23129;49.662;8.448;2024-03-06T08:46:01;1.27;;;1.17;;
37237;SDS011;23129;49.662;8.448;2024-03-06T08:48:31;3.03;;;1.38;;
37237;SDS011;23129;49.662;8.448;2024-03-06T08:51:00;3.22;;;1.75;;
37237;SDS011;23129;49.662;8.448;2024-03-06T08:53:29;2.85;;;1.35;;
37237;SDS011;23129;49.662;8.448;2024-03-06T08:55:58;1.88;;;1.40;;
37237;SDS011;23129;49.662;8.448;2024-03-06T08:58:26;2.17;;;1.67;;
37237;SDS011;23129;49.662;8.448;2024-03-06T09:00:56;2.08;;;1.38;;
37237;SDS011;23129;49.662;8.448;2024-03-06T09:03:25;9.18;;;1.67;;
37237;SDS011;23129;49.662;8.448;2024-03-06T09:05:55;1.88;;;1.58;;
37237;SDS011;23129;49.662;8.448;2024-03-06T09:08:24;7.45;;;1.55;;
37237;SDS011;23129;49.662;8.448;2024-03-06T09:10:53;3.42;;;1.25;;
37237;SDS011;23129;49.662;8.448;2024-03-06T09:13:22;4.43;;;1.48;;
37237;SDS011;23129;49.662;8.448;2024-03-06T09:15:51;2.15;;;1.80;;
37237;SDS011;23129;49.662;8.448;2024-03-06T09:18:20;4.80;;;1.75;;
37237;SDS011;23129;49.662;8.448;2024-03-06T09:20:49;2.20;;;1.23;;
37237;SDS011;23129;49.662;8.448;2024-03-06T09:23:19;1.75;;;1.27;;
37237;SDS011;23129;49.662;8.448;2024-03-06T09:25:47;6.38;;;2.30;;
37237;SDS011;23129;49.662;8.448;2024-03-06T09:28:16;7.38;;;1.60;;
37237;SDS011;23129;49.662;8.448;2024-03-06T09:30:45;3.42;;;2.10;;
37237;SDS011;23129;49.662;8.448;2024-03-06T09:33:13;2.88;;;1.98;;
37237;SDS011;23129;49.662;8.448;2024-03-06T09:35:42;5.03;;;1.67;;
37237;SDS011;23129;49.662;8.448;2024-03-06T09:38:12;3.03;;;2.05;;
37237;SDS011;23129;49.662;8.448;2024-03-06T09:40:46;3.92;;;2.65;;
37237;SDS011;23129;49.662;8.448;2024-03-06T09:43:15;6.90;;;2.55;;
37237;SDS011;23129;49.662;8.448;2024-03-06T09:45:44;3.92;;;2.17;;
37237;SDS011;23129;49.662;8.448;2024-03-06T09:48:16;4.47;;;2.83;;
37237;SDS011;23129;49.662;8.448;2024-03-06T09:50:48;5.78;;;3.55;;
37237;SDS011;23129;49.662;8.448;2024-03-06T09:53:19;7.88;;;3.25;;
37237;SDS011;23129;49.662;8.448;2024-03-06T09:55:50;6.90;;;3.65;;
37237;SDS011;23129;49.662;8.448;2024-03-06T09:58:19;8.18;;;4.00;;
37237;SDS011;23129;49.662;8.448;2024-03-06T10:00:48;7.22;;;3.67;;
37237;SDS011;23129;49.662;8.448;2024-03-06T10:03:18;9.55;;;3.90;;
37237;SDS011;23129;49.662;8.448;2024-03-06T10:05:47;8.68;;;4.82;;
37237;SDS011;23129;49.662;8.448;2024-03-06T10:08:16;7.93;;;5.13;;
37237;SDS011;23129;49.662;8.448;2024-03-06T10:10:48;9.35;;;5.05;;
37237;SDS011;23129;49.662;8.448;2024-03-06T10:13:22;11.35;;;5.95;;
37237;SDS011;23129;49.662;8.448;2024-03-06T10:15:57;13.93;;;7.15;;
37237;SDS011;23129;49.662;8.448;2024-03-06T10:18:27;13.30;;;5.63;;
37237;SDS011;23129;49.662;8.448;2024-03-06T10:20:57;12.52;;;5.95;;
37237;SDS011;23129;49.662;8.448;2024-03-06T10:23:27;13.20;;;5.47;;
37237;SDS011;23129;49.662;8.448;2024-03-06T10:25:57;11.93;;;5.72;;
37237;SDS011;23129;49.662;8.448;2024-03-06T10:28:26;15.85;;;7.20;;
37237;SDS011;23129;49.662;8.448;2024-03-06T10:31:02;12.70;;;7.65;;
37237;SDS011;23129;49.662;8.448;2024-03-06T10:33:33;13.25;;;6.60;;
37237;SDS011;23129;49.662;8.448;2024-03-06T10:36:04;26.40;;;8.65;;
37237;SDS011;23129;49.662;8.448;2024-03-06T10:38:38;16.37;;;8.40;;
37237;SDS011;23129;49.662;8.448;2024-03-06T10:41:13;17.52;;;7.90;;
37237;SDS011;23129;49.662;8.448;2024-03-06T10:43:47;17.15;;;8.10;;
37237;SDS011;23129;49.662;8.448;2024-03-06T10:46:16;15.45;;;8.50;;
37237;SDS011;23129;49.662;8.448;2024-03-06T10:48:49;18.05;;;9.07;;
37237;SDS011;23129;49.662;8.448;2024-03-06T10:51:19;16.65;;;8.32;;
37237;SDS011;23129;49.662;8.448;2024-03-06T10:53:50;15.05;;;9.02;;
37237;SDS011;23129;49.662;8.448;2024-03-06T10:56:20;18.67;;;8.93;;
37237;SDS011;23129;49.662;8.448;2024-03-06T10:58:50;16.02;;;9.05;;
37237;SDS011;23129;49.662;8.448;2024-03-06T11:01:24;18.73;;;9.93;;
37237;SDS011;23129;49.662;8.448;2024-03-06T11:04:01;14.77;;;7.85;;
37237;SDS011;23129;49.662;8.448;2024-03-06T11:06:35;18.23;;;9.55;;
37237;SDS011;23129;49.662;8.448;2024-03-06T11:09:07;18.00;;;8.43;;
37237;SDS011;23129;49.662;8.448;2024-03-06T11:11:49;15.43;;;8.77;;
37237;SDS011;23129;49.662;8.448;2024-03-06T11:14:23;16.25;;;8.52;;
37237;SDS011;23129;49.662;8.448;2024-03-06T11:16:57;20.40;;;9.00;;
37237;SDS011;23129;49.662;8.448;2024-03-06T11:19:28;15.07;;;8.48;;
37237;SDS011;23129;49.662;8.448;2024-03-06T11:21:58;16.75;;;9.15;;
37237;SDS011;23129;49.662;8.448;2024-03-06T11:24:33;13.90;;;8.05;;
37237;SDS011;23129;49.662;8.448;2024-03-06T11:27:04;13.20;;;8.23;;
37237;SDS011;23129;49.662;8.448;2024-03-06T11:32:30;17.20;;;9.07;;
37237;SDS011;23129;49.662;8.448;2024-03-06T11:35:00;16.05;;;8.90;;
37237;SDS011;23129;49.662;8.448;2024-03-06T11:37:30;16.10;;;9.20;;
37237;SDS011;23129;49.662;8.448;2024-03-06T11:40:02;18.98;;;8.52;;
37237;SDS011;23129;49.662;8.448;2024-03-06T11:42:36;18.83;;;10.13;;
37237;SDS011;23129;49.662;8.448;2024-03-06T11:45:15;21.42;;;11.23;;
37237;SDS011;23129;49.662;8.448;2024-03-06T11:47:55;19.65;;;10.48;;
37237;SDS011;23129;49.662;8.448;2024-03-06T11:50:26;18.80;;;10.15;;
37237;SDS011;23129;49.662;8.448;2024-03-06T11:52:56;18.65;;;9.40;;
37237;SDS011;23129;49.662;8.448;2024-03-06T11:55:26;19.75;;;11.25;;
37237;SDS011;23129;49.662;8.448;2024-03-06T11:57:56;20.25;;;10.90;;
37237;SDS011;23129;49.662;8.448;2024-03-06T12:00:24;20.52;;;11.43;;
37237;SDS011;23129;49.662;8.448;2024-03-06T12:02:53;24.17;;;11.07;;
37237;SDS011;23129;49.662;8.448;2024-03-06T12:05:22;25.13;;;11.88;;
37237;SDS011;23129;49.662;8.448;2024-03-06T12:07:51;16.40;;;9.35;;
37237;SDS011;23129;49.662;8.448;2024-03-06T12:10:20;20.02;;;10.82;;
37237;SDS011;23129;49.662;8.448;2024-03-06T12:12:49;24.17;;;11.73;;
37237;SDS011;23129;49.662;8.448;2024-03-06T12:15:20;19.70;;;10.13;;
37237;SDS011;23129;49.662;8.448;2024-03-06T12:17:50;23.90;;;11.90;;
37237;SDS011;23129;49.662;8.448;2024-03-06T12:20:21;22.05;;;11.60;;
37237;SDS011;23129;49.662;8.448;2024-03-06T12:22:52;23.08;;;11.02;;
37237;SDS011;23129;49.662;8.448;2024-03-06T12:25:23;21.27;;;10.60;;
37237;SDS011;23129;49.662;8.448;2024-03-06T12:27:53;22.73;;;11.55;;
37237;SDS011;23129;49.662;8.448;2024-03-06T12:30:24;20.25;;;10.65;;
37237;SDS011;23129;49.662;8.448;2024-03-06T12:32:57;19.63;;;9.90;;
37237;SDS011;23129;49.662;8.448;2024-03-06T12:35:26;22.98;;;10.32;;
37237;SDS011;23129;49.662;8.448;2024-03-06T12:37:55;23.48;;;11.77;;
37237;SDS011;23129;49.662;8.448;2024-03-06T12:40:24;20.98;;;10.30;;
37237;SDS011;23129;49.662;8.448;2024-03-06T12:42:54;23.52;;;11.10;;
37237;SDS011;23129;49.662;8.448;2024-03-06T12:45:24;20.38;;;10.07;;
37237;SDS011;23129;49.662;8.448;2024-03-06T12:47:54;18.40;;;10.45;;
37237;SDS011;23129;49.662;8.448;2024-03-06T12:50:23;20.50;;;10.32;;
37237;SDS011;23129;49.662;8.448;2024-03-06T12:52:52;24.75;;;10.85;;
37237;SDS011;23129;49.662;8.448;2024-03-06T12:55:21;19.85;;;9.60;;
37237;SDS011;23129;49.662;8.448;2024-03-06T12:57:52;21.77;;;10.25;;
37237;SDS011;23129;49.662;8.448;2024-03-06T13:00:21;19.17;;;10.40;;
37237;SDS011;23129;49.662;8.448;2024-03-06T13:02:51;27.50;;;11.82;;
37237;SDS011;23129;49.662;8.448;2024-03-06T13:05:19;23.15;;;11.40;;
37237;SDS011;23129;49.662;8.448;2024-03-06T13:07:48;16.27;;;9.30;;
37237;SDS011;23129;49.662;8.448;2024-03-06T13:10:17;21.90;;;9.20;;
37237;SDS011;23129;49.662;8.448;2024-03-06T13:12:48;19.35;;;9.25;;
37237;SDS011;23129;49.662;8.448;2024-03-06T13:15:19;19.20;;;8.27;;
37237;SDS011;23129;49.662;8.448;2024-03-06T13:17:48;16.40;;;8.07;;
37237;SDS011;23129;49.662;8.448;2024-03-06T13:20:18;17.58;;;8.32;;
37237;SDS011;23129;49.662;8.448;2024-03-06T13:22:47;24.25;;;9.27;;
37237;SDS011;23129;49.662;8.448;2024-03-06T13:25:16;15.95;;;8.23;;
37237;SDS011;23129;49.662;8.448;2024-03-06T13:27:46;14.07;;;7.65;;
37237;SDS011;23129;49.662;8.448;2024-03-06T13:30:19;16.27;;;8.60;;
37237;SDS011;23129;49.662;8.448;2024-03-06T13:32:55;16.30;;;8.38;;
37237;SDS011;23129;49.662;8.448;2024-03-06T13:35:27;19.48;;;7.78;;
37237;SDS011;23129;49.662;8.448;2024-03-06T13:38:00;16.45;;;7.97;;
37237;SDS011;23129;49.662;8.448;2024-03-06T13:40:30;15.63;;;7.93;;
37237;SDS011;23129;49.662;8.448;2024-03-06T13:42:59;20.50;;;10.05;;
37237;SDS011;23129;49.662;8.448;2024-03-06T13:45:28;15.38;;;7.72;;
37237;SDS011;23129;49.662;8.448;2024-03-06T13:47:58;18.58;;;8.38;;
37237;SDS011;23129;49.662;8.448;2024-03-06T13:50:27;16.20;;;7.30;;
37237;SDS011;23129;49.662;8.448;2024-03-06T13:52:56;19.48;;;8.10;;
37237;SDS011;23129;49.662;8.448;2024-03-06T13:55:25;14.95;;;8.25;;
37237;SDS011;23129;49.662;8.448;2024-03-06T13:57:57;13.55;;;7.85;;
37237;SDS011;23129;49.662;8.448;2024-03-06T14:00:29;15.68;;;8.13;;
37237;SDS011;23129;49.662;8.448;2024-03-06T14:03:00;15.82;;;7.97;;
37237;SDS011;23129;49.662;8.448;2024-03-06T14:05:28;18.55;;;8.93;;
37237;SDS011;23129;49.662;8.448;2024-03-06T14:07:57;13.32;;;8.30;;
37237;SDS011;23129;49.662;8.448;2024-03-06T14:10:26;23.92;;;9.38;;
37237;SDS011;23129;49.662;8.448;2024-03-06T14:12:56;18.08;;;8.27;;
37237;SDS011;23129;49.662;8.448;2024-03-06T14:15:25;17.17;;;8.40;;
37237;SDS011;23129;49.662;8.448;2024-03-06T14:17:54;29.33;;;9.45;;
37237;SDS011;23129;49.662;8.448;2024-03-06T14:20:24;18.20;;;7.82;;
37237;SDS011;23129;49.662;8.448;2024-03-06T14:22:53;17.75;;;8.85;;
37237;SDS011;23129;49.662;8.448;2024-03-06T14:25:21;18.77;;;9.60;;
37237;SDS011;23129;49.662;8.448;2024-03-06T14:27:50;18.42;;;8.30;;
37237;SDS011;23129;49.662;8.448;2024-03-06T14:30:19;19.20;;;9.07;;
37237;SDS011;23129;49.662;8.448;2024-03-06T14:32:48;18.83;;;8.85;;
37237;SDS011;23129;49.662;8.448;2024-03-06T14:35:17;19.42;;;9.00;;
37237;SDS011;23129;49.662;8.448;2024-03-06T14:37:47;16.23;;;8.45;;
37237;SDS011;23129;49.662;8.448;2024-03-06T14:40:16;18.65;;;9.95;;
37237;SDS011;23129;49.662;8.448;2024-03-06T14:42:44;18.85;;;9.40;;
37237;SDS011;23129;49.662;8.448;2024-03-06T14:45:13;20.48;;;9.10;;
37237;SDS011;23129;49.662;8.448;2024-03-06T14:47:42;19.02;;;10.18;;
37237;SDS011;23129;49.662;8.448;2024-03-06T14:50:10;21.50;;;9.13;;
37237;SDS011;23129;49.662;8.448;2024-03-06T14:52:39;22.30;;;8.80;;
37237;SDS011;23129;49.662;8.448;2024-03-06T14:55:09;22.40;;;9.45;;
37237;SDS011;23129;49.662;8.448;2024-03-06T14:57:38;19.40;;;8.65;;
37237;SDS011;23129;49.662;8.448;2024-03-06T15:00:07;21.95;;;9.85;;
37237;SDS011;23129;49.662;8.448;2024-03-06T15:02:39;26.08;;;10.45;;
37237;SDS011;23129;49.662;8.448;2024-03-06T15:05:08;19.17;;;10.35;;